Time;durP1;ratioP1;P1;durP2;ratioP2;P2;SDS_P1;SDS_P2;PMS_P1;PMS_P2;Temp;Humidity;BMP_temperature;BMP_pressure;BME280_temperature;BME280_humidity;BME280_pressure;Samples;Min_cycle;Max_cycle;Signal;HPM_P1;HPM_P2
2022/01/20 00:01:41;;;;;;;29.93;27.77;;;;;;;;;;5091798;28;20286;-77
2022/01/20 00:04:16;;;;;;;29.93;28.03;;;;;;;;;;5091553;28;20182;-78
2022/01/20 00:20:29;;;;;;;29.20;27.40;;;;;;;;;;5095548;28;20543;-77
2022/01/20 00:26:18;;;;;;;31.07;29.07;;;;;;;;;;5053727;28;20194;-78
2022/01/20 00:28:47;;;;;;;30.53;28.53;;;;;;;;;;5095140;28;20213;-77
2022/01/20 00:31:32;;;;;;;31.10;29.00;;;;;;;;;;5094936;28;20714;-77
2022/01/20 00:34:11;;;;;;;28.13;26.23;;;;;;;;;;5094700;28;20277;-78
2022/01/20 00:39:21;;;;;;;27.87;26.13;;;;;;;;;;5094653;28;20208;-78
2022/01/20 00:41:49;;;;;;;29.83;27.90;;;;;;;;;;5094768;28;20233;-78
2022/01/20 00:44:16;;;;;;;28.53;26.83;;;;;;;;;;5094485;28;20698;-77
2022/01/20 00:46:44;;;;;;;30.90;28.80;;;;;;;;;;5094743;28;20290;-78
2022/01/20 00:49:11;;;;;;;30.37;28.47;;;;;;;;;;5094707;28;20198;-78
2022/01/20 00:51:37;;;;;;;32.03;29.73;;;;;;;;;;5094263;28;20289;-77
2022/01/20 00:54:04;;;;;;;30.17;28.27;;;;;;;;;;5094887;28;20198;-78
2022/01/20 00:56:31;;;;;;;29.80;27.90;;;;;;;;;;5094554;28;20251;-78
2022/01/20 00:58:59;;;;;;;30.63;28.73;;;;;;;;;;5094032;28;20340;-78
2022/01/20 01:01:26;;;;;;;28.80;27.03;;;;;;;;;;5094137;28;20225;-78
2022/01/20 01:03:53;;;;;;;30.27;28.17;;;;;;;;;;5094327;28;20194;-78
2022/01/20 01:06:33;;;;;;;30.47;28.67;;;;;;;;;;5094079;28;20246;-78
2022/01/20 01:09:00;;;;;;;30.73;28.93;;;;;;;;;;5094284;28;20238;-77
2022/01/20 01:11:27;;;;;;;30.60;28.80;;;;;;;;;;5093975;28;20194;-78
2022/01/20 01:13:56;;;;;;;30.97;29.17;;;;;;;;;;5094216;28;20247;-77
2022/01/20 01:16:35;;;;;;;30.63;28.83;;;;;;;;;;5093887;28;20629;-78
2022/01/20 01:22:02;;;;;;;26.97;25.47;;;;;;;;;;5093853;28;20228;-78
2022/01/20 01:24:29;;;;;;;27.57;25.97;;;;;;;;;;5094088;28;20194;-78
2022/01/20 01:26:56;;;;;;;28.40;26.80;;;;;;;;;;5093660;28;20235;-78
2022/01/20 01:29:39;;;;;;;29.03;27.43;;;;;;;;;;5093943;28;20193;-77
2022/01/20 01:32:11;;;;;;;28.97;27.17;;;;;;;;;;5094078;28;20233;-78
2022/01/20 01:34:40;;;;;;;29.80;28.10;;;;;;;;;;5093851;28;20193;-78
2022/01/20 01:37:24;;;;;;;30.23;28.53;;;;;;;;;;5093851;28;20209;-78
2022/01/20 01:39:51;;;;;;;30.57;28.77;;;;;;;;;;5093450;28;20679;-78
2022/01/20 01:42:25;;;;;;;28.70;27.00;;;;;;;;;;5093222;28;20287;-79
2022/01/20 01:44:52;;;;;;;29.70;28.00;;;;;;;;;;5093648;28;20189;-78
2022/01/20 01:47:20;;;;;;;30.23;28.43;;;;;;;;;;5093520;28;20276;-78
2022/01/20 01:49:47;;;;;;;30.90;28.93;;;;;;;;;;5093213;28;20232;-78
2022/01/20 01:52:14;;;;;;;30.77;28.97;;;;;;;;;;5093446;28;20205;-78
2022/01/20 01:54:40;;;;;;;31.10;29.30;;;;;;;;;;5093074;28;20204;-78
2022/01/20 01:57:09;;;;;;;31.97;30.07;;;;;;;;;;5093128;28;20671;-78
2022/01/20 01:59:36;;;;;;;30.70;28.80;;;;;;;;;;5093228;28;20206;-78
2022/01/20 02:02:03;;;;;;;30.63;28.83;;;;;;;;;;5092903;28;20762;-78
2022/01/20 02:04:33;;;;;;;23.33;22.00;;;;;;;;;;5093302;28;20201;-78
2022/01/20 02:07:28;;;;;;;24.33;22.83;;;;;;;;;;5093509;28;20241;-79
2022/01/20 02:18:36;;;;;;;25.00;23.70;;;;;;;;;;5092905;28;20721;-78
2022/01/20 02:21:05;;;;;;;24.47;23.07;;;;;;;;;;5093240;28;20194;-78
2022/01/20 02:23:32;;;;;;;25.33;23.93;;;;;;;;;;5092998;28;20703;-78
2022/01/20 02:25:58;;;;;;;29.97;28.27;;;;;;;;;;5093417;28;20222;-77
2022/01/20 02:28:27;;;;;;;29.07;27.47;;;;;;;;;;5092474;28;20193;-77
2022/01/20 02:30:54;;;;;;;29.90;28.20;;;;;;;;;;5092562;28;20193;-78
2022/01/20 02:33:21;;;;;;;29.80;28.10;;;;;;;;;;5092418;28;20668;-77
2022/01/20 02:35:50;;;;;;;30.30;28.60;;;;;;;;;;5092804;28;20197;-78
2022/01/20 02:38:24;;;;;;;29.77;28.13;;;;;;;;;;5092445;28;20243;-77
2022/01/20 02:46:19;;;;;;;29.50;27.87;;;;;;;;;;5093031;28;20725;-77
2022/01/20 02:48:46;;;;;;;28.10;26.60;;;;;;;;;;5092628;28;20194;-78
2022/01/20 02:51:13;;;;;;;29.27;27.67;;;;;;;;;;5092526;28;20200;-78
2022/01/20 02:53:41;;;;;;;28.57;26.97;;;;;;;;;;5093124;28;20254;-78
2022/01/20 02:56:08;;;;;;;28.77;27.27;;;;;;;;;;5092215;28;20197;-77
2022/01/20 02:58:35;;;;;;;27.57;26.17;;;;;;;;;;5091980;28;20233;-78
2022/01/20 03:01:01;;;;;;;27.20;25.77;;;;;;;;;;5092527;28;20671;-78
2022/01/20 03:03:28;;;;;;;30.97;29.27;;;;;;;;;;5092233;28;20225;-78
2022/01/20 03:05:55;;;;;;;30.87;29.17;;;;;;;;;;5092641;28;20190;-77
2022/01/20 03:08:22;;;;;;;32.07;30.27;;;;;;;;;;5092448;28;20197;-77
2022/01/20 03:10:50;;;;;;;31.50;29.70;;;;;;;;;;5092000;28;20251;-77
2022/01/20 03:13:16;;;;;;;31.00;29.30;;;;;;;;;;5092326;28;20252;-77
2022/01/20 03:15:43;;;;;;;30.83;29.13;;;;;;;;;;5092333;28;20193;-77
2022/01/20 03:18:10;;;;;;;31.63;29.83;;;;;;;;;;5092321;28;20200;-77
2022/01/20 03:20:37;;;;;;;31.73;30.03;;;;;;;;;;5092313;28;20648;-78
2022/01/20 03:23:04;;;;;;;32.07;30.27;;;;;;;;;;5091878;28;20715;-78
2022/01/20 03:25:31;;;;;;;32.87;30.97;;;;;;;;;;5091946;28;20229;-77
2022/01/20 03:27:59;;;;;;;30.47;28.77;;;;;;;;;;5092174;28;20225;-77
2022/01/20 03:30:26;;;;;;;29.60;27.97;;;;;;;;;;5092751;28;20196;-77
2022/01/20 03:32:53;;;;;;;29.70;28.13;;;;;;;;;;5092112;28;20281;-77
2022/01/20 03:35:20;;;;;;;29.93;28.33;;;;;;;;;;5091834;28;20706;-77
2022/01/20 03:37:46;;;;;;;28.87;27.23;;;;;;;;;;5091823;28;20202;-78
2022/01/20 03:40:14;;;;;;;25.73;24.43;;;;;;;;;;5093199;28;20577;-74
2022/01/20 03:42:41;;;;;;;28.30;26.83;;;;;;;;;;5095585;28;20726;-77
2022/01/20 03:45:09;;;;;;;30.83;29.23;;;;;;;;;;5096084;28;20225;-75
2022/01/20 03:47:36;;;;;;;32.53;30.83;;;;;;;;;;5095572;28;20262;-76
2022/01/20 03:50:10;;;;;;;33.93;32.03;;;;;;;;;;5095557;28;20197;-74
2022/01/20 03:52:37;;;;;;;32.07;30.33;;;;;;;;;;5095760;28;20273;-74
2022/01/20 03:55:04;;;;;;;32.87;30.73;;;;;;;;;;5095732;28;20291;-78
2022/01/20 03:57:31;;;;;;;30.90;29.27;;;;;;;;;;5095377;28;20308;-74
2022/01/20 03:59:57;;;;;;;31.67;29.97;;;;;;;;;;5095649;28;20280;-77
2022/01/20 04:02:26;;;;;;;30.17;28.57;;;;;;;;;;5095504;28;20307;-76
2022/01/20 04:04:52;;;;;;;30.97;29.27;;;;;;;;;;5095551;28;20231;-77
2022/01/20 04:07:19;;;;;;;31.20;29.50;;;;;;;;;;5095799;28;20280;-76
2022/01/20 04:09:46;;;;;;;30.83;29.13;;;;;;;;;;5095446;28;20273;-73
2022/01/20 04:12:12;;;;;;;31.17;29.47;;;;;;;;;;5095314;28;20201;-74
2022/01/20 04:14:46;;;;;;;31.27;29.57;;;;;;;;;;5095042;28;20255;-74
2022/01/20 04:17:17;;;;;;;27.83;26.43;;;;;;;;;;5095488;28;20189;-74
2022/01/20 04:19:45;;;;;;;28.80;27.30;;;;;;;;;;5095275;28;20182;-77
2022/01/20 04:22:12;;;;;;;28.37;26.87;;;;;;;;;;5094847;28;20756;-77
2022/01/20 04:24:39;;;;;;;28.73;27.23;;;;;;;;;;5094859;28;20198;-75
2022/01/20 04:27:06;;;;;;;29.23;26.23;;;;;;;;;;5095105;28;20194;-77
2022/01/20 04:29:34;;;;;;;24.47;23.17;;;;;;;;;;5094852;28;20693;-77
2022/01/20 04:32:00;;;;;;;30.73;29.03;;;;;;;;;;5095001;28;20194;-77
2022/01/20 04:34:27;;;;;;;30.17;28.57;;;;;;;;;;5094601;28;20649;-77
2022/01/20 04:36:56;;;;;;;30.83;29.13;;;;;;;;;;5094662;28;20198;-77
2022/01/20 04:39:27;;;;;;;29.77;28.17;;;;;;;;;;5094590;28;20198;-77
2022/01/20 04:41:54;;;;;;;31.07;29.37;;;;;;;;;;5095244;28;20211;-77
2022/01/20 04:44:34;;;;;;;29.83;28.23;;;;;;;;;;5094404;28;20225;-77
2022/01/20 04:47:10;;;;;;;30.43;28.73;;;;;;;;;;5094822;28;20193;-77
2022/01/20 04:57:51;;;;;;;26.30;24.90;;;;;;;;;;5094434;28;20298;-77
2022/01/20 05:00:18;;;;;;;28.10;26.50;;;;;;;;;;5094169;28;20194;-78
2022/01/20 05:02:44;;;;;;;24.63;23.23;;;;;;;;;;5094336;28;20222;-78
2022/01/20 05:05:11;;;;;;;25.47;23.77;;;;;;;;;;5094101;28;20198;-77
2022/01/20 05:07:39;;;;;;;23.90;22.60;;;;;;;;;;5093995;28;20198;-78
2022/01/20 05:10:10;;;;;;;30.90;29.30;;;;;;;;;;5094322;28;20194;-77
2022/01/20 05:13:00;;;;;;;33.23;31.43;;;;;;;;;;5093945;28;20198;-78
2022/01/20 05:15:24;;;;;;;31.90;30.20;;;;;;;;;;5093775;28;20190;-77
2022/01/20 05:17:51;;;;;;;33.83;32.03;;;;;;;;;;5094959;28;20222;-77
2022/01/20 05:20:18;;;;;;;28.93;27.33;;;;;;;;;;5093818;28;20664;-77
2022/01/20 05:22:46;;;;;;;30.30;28.60;;;;;;;;;;5094002;28;20304;-77
2022/01/20 05:25:13;;;;;;;28.87;27.23;;;;;;;;;;5093999;28;20194;-76
2022/01/20 05:27:40;;;;;;;29.20;27.60;;;;;;;;;;5093953;28;20200;-77
2022/01/20 05:30:07;;;;;;;32.03;30.23;;;;;;;;;;5093560;28;20225;-78
2022/01/20 05:32:34;;;;;;;32.83;31.03;;;;;;;;;;5093961;28;20198;-78
2022/01/20 05:35:00;;;;;;;26.70;25.20;;;;;;;;;;5093809;28;20281;-75
2022/01/20 05:37:27;;;;;;;26.43;24.93;;;;;;;;;;5093774;28;20273;-74
2022/01/20 05:39:55;;;;;;;33.70;31.90;;;;;;;;;;5093753;28;20205;-74
2022/01/20 05:42:22;;;;;;;29.73;28.13;;;;;;;;;;5093249;28;20655;-75
2022/01/20 05:44:51;;;;;;;29.73;28.13;;;;;;;;;;5093318;28;20611;-73
2022/01/20 05:47:25;;;;;;;23.23;21.93;;;;;;;;;;5093227;28;20597;-77
2022/01/20 05:49:52;;;;;;;23.33;22.03;;;;;;;;;;5093598;28;20639;-75
2022/01/20 05:52:19;;;;;;;22.77;21.57;;;;;;;;;;5093445;28;20237;-75
2022/01/20 05:54:45;;;;;;;23.67;22.37;;;;;;;;;;5093191;28;20204;-74
2022/01/20 05:57:14;;;;;;;23.67;22.37;;;;;;;;;;5093106;28;20221;-74
2022/01/20 05:59:40;;;;;;;30.67;28.97;;;;;;;;;;5093059;28;20750;-74
2022/01/20 06:02:13;;;;;;;31.13;29.43;;;;;;;;;;5093085;28;20250;-74
2022/01/20 06:04:40;;;;;;;31.80;29.90;;;;;;;;;;5092602;28;20213;-76
2022/01/20 06:07:07;;;;;;;29.17;27.53;;;;;;;;;;5093275;28;20197;-74
2022/01/20 06:09:34;;;;;;;26.93;25.43;;;;;;;;;;5093151;28;20229;-76
2022/01/20 06:12:00;;;;;;;29.70;28.10;;;;;;;;;;5093124;28;20201;-74
2022/01/20 06:14:29;;;;;;;27.33;25.83;;;;;;;;;;5092806;28;20198;-74
2022/01/20 06:16:56;;;;;;;29.17;27.57;;;;;;;;;;5092976;28;20194;-74
2022/01/20 06:19:24;;;;;;;28.03;26.53;;;;;;;;;;5092732;28;20281;-74
2022/01/20 06:21:51;;;;;;;27.03;25.50;;;;;;;;;;5092954;28;20198;-74
2022/01/20 06:24:18;;;;;;;30.33;28.57;;;;;;;;;;5092567;28;20222;-74
2022/01/20 06:26:44;;;;;;;31.67;29.97;;;;;;;;;;5092918;28;20267;-74
2022/01/20 06:29:11;;;;;;;33.70;31.80;;;;;;;;;;5092805;28;20197;-74
2022/01/20 06:31:39;;;;;;;31.93;30.23;;;;;;;;;;5092813;28;20193;-74
2022/01/20 06:34:06;;;;;;;29.30;27.73;;;;;;;;;;5092739;28;20201;-74
2022/01/20 06:36:33;;;;;;;30.73;29.13;;;;;;;;;;5092788;28;20198;-74
2022/01/20 06:38:59;;;;;;;31.73;30.13;;;;;;;;;;5092406;28;20232;-74
2022/01/20 06:41:26;;;;;;;29.13;27.63;;;;;;;;;;5092723;28;20277;-74
2022/01/20 06:43:53;;;;;;;31.73;30.03;;;;;;;;;;5092572;28;20221;-76
2022/01/20 06:46:20;;;;;;;33.23;31.43;;;;;;;;;;5092292;28;20733;-74
2022/01/20 06:48:48;;;;;;;33.57;31.77;;;;;;;;;;5092304;28;20247;-73
2022/01/20 06:51:15;;;;;;;34.53;32.63;;;;;;;;;;5092517;28;20190;-74
2022/01/20 06:53:42;;;;;;;33.67;31.67;;;;;;;;;;5092495;28;20285;-73
2022/01/20 06:56:08;;;;;;;32.17;30.47;;;;;;;;;;5092212;28;20729;-73
2022/01/20 06:58:35;;;;;;;35.43;32.97;;;;;;;;;;5091975;28;20304;-74
2022/01/20 07:01:02;;;;;;;34.33;32.43;;;;;;;;;;5092079;28;20198;-74
2022/01/20 07:03:28;;;;;;;35.20;33.30;;;;;;;;;;5092273;28;20279;-74
2022/01/20 07:05:56;;;;;;;36.73;34.63;;;;;;;;;;5092061;28;20193;-74
2022/01/20 07:08:23;;;;;;;37.80;35.80;;;;;;;;;;5092030;28;20255;-74
2022/01/20 07:10:50;;;;;;;36.57;34.67;;;;;;;;;;5092288;28;20197;-74
2022/01/20 07:13:17;;;;;;;37.50;35.40;;;;;;;;;;5091993;28;20201;-74
2022/01/20 07:15:43;;;;;;;36.67;34.67;;;;;;;;;;5096892;28;20276;-75
2022/01/20 07:18:10;;;;;;;34.97;33.13;;;;;;;;;;5096473;28;20199;-74
2022/01/20 07:20:37;;;;;;;35.67;33.73;;;;;;;;;;5096429;28;20276;-75
2022/01/20 07:23:05;;;;;;;34.60;32.80;;;;;;;;;;5096799;28;20225;-74
2022/01/20 07:25:32;;;;;;;35.77;33.87;;;;;;;;;;5096359;28;20201;-75
2022/01/20 07:27:58;;;;;;;35.53;33.57;;;;;;;;;;5096267;28;20270;-75
2022/01/20 07:30:25;;;;;;;31.83;30.13;;;;;;;;;;5096260;28;20219;-75
2022/01/20 07:32:52;;;;;;;35.67;33.77;;;;;;;;;;5096196;28;20244;-74
2022/01/20 07:35:19;;;;;;;29.10;27.50;;;;;;;;;;5096133;28;20198;-75
2022/01/20 07:37:46;;;;;;;32.20;30.50;;;;;;;;;;5096095;28;20194;-75
2022/01/20 07:40:15;;;;;;;32.33;30.63;;;;;;;;;;5096081;28;20229;-75
2022/01/20 07:42:41;;;;;;;31.80;30.10;;;;;;;;;;5095966;28;20228;-75
2022/01/20 07:45:09;;;;;;;31.27;29.67;;;;;;;;;;5095871;28;20234;-74
2022/01/20 07:47:35;;;;;;;34.23;32.43;;;;;;;;;;5095624;28;20247;-75
2022/01/20 07:50:02;;;;;;;35.23;33.33;;;;;;;;;;5095573;28;20229;-75
2022/01/20 07:52:29;;;;;;;36.07;34.17;;;;;;;;;;5095751;28;20193;-76
2022/01/20 07:54:55;;;;;;;33.97;32.17;;;;;;;;;;5096290;28;20233;-76
2022/01/20 07:57:23;;;;;;;33.50;31.70;;;;;;;;;;5095401;28;20230;-76
2022/01/20 07:59:50;;;;;;;31.63;30.03;;;;;;;;;;5095380;28;20236;-76
2022/01/20 08:02:17;;;;;;;33.37;31.63;;;;;;;;;;5095619;28;20194;-74
2022/01/20 08:04:44;;;;;;;32.30;30.60;;;;;;;;;;5095480;28;20231;-75
2022/01/20 08:07:10;;;;;;;33.30;31.40;;;;;;;;;;5095534;28;20198;-77
2022/01/20 08:09:38;;;;;;;31.70;30.00;;;;;;;;;;5095204;28;20663;-74
2022/01/20 08:12:05;;;;;;;29.10;27.60;;;;;;;;;;5095223;28;20198;-75
2022/01/20 08:14:33;;;;;;;29.33;27.73;;;;;;;;;;5095457;28;20197;-74
2022/01/20 08:17:00;;;;;;;32.37;30.33;;;;;;;;;;5095050;28;20229;-74
2022/01/20 08:19:27;;;;;;;35.27;33.37;;;;;;;;;;5094998;28;20660;-76
2022/01/20 08:21:53;;;;;;;34.43;32.53;;;;;;;;;;5095224;28;20628;-75
2022/01/20 08:24:20;;;;;;;35.07;33.07;;;;;;;;;;5095148;28;20225;-75
2022/01/20 08:26:47;;;;;;;36.30;34.30;;;;;;;;;;5094112;28;20233;-75
2022/01/20 08:29:13;;;;;;;35.93;33.97;;;;;;;;;;5095118;28;20228;-75
2022/01/20 08:31:41;;;;;;;34.87;33.03;;;;;;;;;;5094793;28;20281;-75
2022/01/20 08:34:08;;;;;;;35.57;33.57;;;;;;;;;;5095007;28;20254;-77
2022/01/20 08:36:35;;;;;;;33.30;31.27;;;;;;;;;;5095029;28;20194;-76
2022/01/20 08:39:02;;;;;;;35.43;33.53;;;;;;;;;;5094633;28;20587;-76
2022/01/20 08:41:28;;;;;;;35.57;33.67;;;;;;;;;;5094709;28;20189;-77
2022/01/20 08:43:55;;;;;;;35.30;33.40;;;;;;;;;;5094637;28;20279;-77
2022/01/20 08:46:23;;;;;;;31.97;29.73;;;;;;;;;;5094770;28;20198;-76
2022/01/20 08:48:52;;;;;;;34.20;32.40;;;;;;;;;;5094435;28;20262;-75
2022/01/20 08:51:18;;;;;;;35.07;33.17;;;;;;;;;;5094634;28;20243;-76
2022/01/20 08:53:45;;;;;;;34.33;32.20;;;;;;;;;;5094354;28;20197;-77
2022/01/20 08:56:12;;;;;;;35.23;33.27;;;;;;;;;;5094617;28;20189;-77
2022/01/20 08:58:39;;;;;;;37.80;35.60;;;;;;;;;;5094078;28;20226;-77
2022/01/20 09:01:06;;;;;;;37.33;34.30;;;;;;;;;;5094213;28;20254;-77
2022/01/20 09:03:33;;;;;;;36.87;34.80;;;;;;;;;;5094357;28;20198;-78
2022/01/20 09:06:02;;;;;;;36.97;34.97;;;;;;;;;;5094118;28;20285;-78
2022/01/20 09:08:29;;;;;;;37.70;35.60;;;;;;;;;;5094017;28;20197;-76
2022/01/20 09:10:56;;;;;;;40.10;37.73;;;;;;;;;;5094028;28;20655;-77
2022/01/20 09:16:07;;;;;;;23.90;22.50;;;;;;;;;;5094428;28;20196;-78
2022/01/20 09:18:33;;;;;;;22.90;21.50;;;;;;;;;;5094199;28;20204;-78
2022/01/20 09:21:00;;;;;;;24.60;23.03;;;;;;;;;;5094171;28;20194;-78
2022/01/20 09:23:28;;;;;;;23.00;21.70;;;;;;;;;;5094049;28;20201;-78
2022/01/20 09:25:55;;;;;;;22.20;21.00;;;;;;;;;;5094007;28;20201;-79
2022/01/20 09:28:21;;;;;;;23.70;22.40;;;;;;;;;;5093978;28;20204;-79
2022/01/20 09:30:50;;;;;;;25.47;23.87;;;;;;;;;;5093689;28;20230;-79
2022/01/20 09:33:25;;;;;;;24.33;22.73;;;;;;;;;;5093901;28;20217;-79
2022/01/20 09:35:52;;;;;;;25.77;24.17;;;;;;;;;;5093971;28;20198;-79
2022/01/20 09:38:19;;;;;;;23.73;22.43;;;;;;;;;;5092484;28;20251;-79
2022/01/20 09:40:48;;;;;;;25.00;23.37;;;;;;;;;;5093762;28;20281;-79
2022/01/20 09:43:15;;;;;;;23.93;22.53;;;;;;;;;;5093352;28;20201;-79
2022/01/20 09:45:42;;;;;;;24.60;22.83;;;;;;;;;;5093945;28;20260;-80
2022/01/20 09:48:09;;;;;;;22.70;21.40;;;;;;;;;;5094856;28;20194;-80
2022/01/20 09:50:36;;;;;;;25.13;23.37;;;;;;;;;;5094777;28;20226;-80
2022/01/20 09:53:02;;;;;;;24.90;23.47;;;;;;;;;;5095999;28;20190;-80
2022/01/20 09:55:30;;;;;;;38.57;23.67;;;;;;;;;;5094502;28;20631;-80
2022/01/20 09:57:58;;;;;;;26.23;23.87;;;;;;;;;;5093366;28;20233;-80
2022/01/20 10:00:25;;;;;;;24.50;23.10;;;;;;;;;;5093666;28;20248;-81
2022/01/20 10:02:57;;;;;;;23.27;21.97;;;;;;;;;;5095798;28;20229;-80
2022/01/20 10:05:31;;;;;;;24.20;22.70;;;;;;;;;;5097749;28;20222;-80
2022/01/20 10:08:06;;;;;;;24.43;23.03;;;;;;;;;;5096908;28;20178;-81
2022/01/20 10:10:39;;;;;;;23.97;22.57;;;;;;;;;;5099277;28;20285;-80
2022/01/20 10:13:08;;;;;;;24.53;22.97;;;;;;;;;;5095519;28;20675;-81
2022/01/20 10:15:36;;;;;;;23.40;22.07;;;;;;;;;;5092805;28;20198;-81
2022/01/20 10:18:07;;;;;;;24.13;22.73;;;;;;;;;;5093153;28;20266;-82
2022/01/20 10:20:33;;;;;;;23.50;22.03;;;;;;;;;;5093341;28;20277;-80
2022/01/20 10:23:00;;;;;;;23.40;21.70;;;;;;;;;;5093610;28;20194;-81
2022/01/20 10:25:27;;;;;;;23.23;21.93;;;;;;;;;;5092591;28;20231;-80
2022/01/20 10:27:55;;;;;;;23.93;22.50;;;;;;;;;;5092591;28;20735;-81
2022/01/20 10:30:24;;;;;;;24.57;23.07;;;;;;;;;;5093056;28;20231;-80
2022/01/20 10:32:52;;;;;;;25.73;23.80;;;;;;;;;;5093204;28;20197;-83
2022/01/20 10:35:19;;;;;;;22.80;21.50;;;;;;;;;;5092856;28;20576;-80
2022/01/20 10:37:57;;;;;;;24.23;21.93;;;;;;;;;;5092865;28;20273;-80
2022/01/20 10:40:24;;;;;;;23.47;22.17;;;;;;;;;;5092820;28;20190;-80
2022/01/20 10:42:51;;;;;;;25.17;22.60;;;;;;;;;;5092440;28;20229;-82
2022/01/20 10:45:21;;;;;;;24.07;22.33;;;;;;;;;;5092590;28;20579;-81
2022/01/20 10:47:51;;;;;;;24.33;22.83;;;;;;;;;;5092590;28;20197;-82
2022/01/20 10:50:21;;;;;;;23.43;21.90;;;;;;;;;;5092810;28;20545;-81
2022/01/20 10:52:49;;;;;;;23.43;22.03;;;;;;;;;;5092643;28;20194;-82
2022/01/20 10:55:20;;;;;;;24.07;22.47;;;;;;;;;;5093561;28;20205;-81
2022/01/20 10:57:46;;;;;;;22.17;20.87;;;;;;;;;;5092256;28;20657;-82
2022/01/20 11:00:18;;;;;;;23.77;22.10;;;;;;;;;;5092230;28;20194;-84
2022/01/20 11:02:48;;;;;;;22.70;21.40;;;;;;;;;;5092180;28;20614;-80
2022/01/20 11:05:17;;;;;;;22.57;21.27;;;;;;;;;;5092533;28;20316;-82
2022/01/20 11:07:44;;;;;;;22.80;21.50;;;;;;;;;;5092092;28;20281;-81
2022/01/20 11:10:11;;;;;;;23.70;22.30;;;;;;;;;;5092442;28;20197;-81
2022/01/20 11:12:38;;;;;;;22.60;21.30;;;;;;;;;;5092284;28;20272;-82
2022/01/20 11:15:08;;;;;;;23.87;22.47;;;;;;;;;;5092525;28;20228;-82
2022/01/20 11:17:35;;;;;;;23.07;21.60;;;;;;;;;;5092759;28;20194;-80
2022/01/20 11:20:06;;;;;;;24.50;23.03;;;;;;;;;;5093018;28;20197;-80
2022/01/20 11:22:34;;;;;;;22.90;21.60;;;;;;;;;;5092322;28;20572;-82
2022/01/20 11:25:01;;;;;;;24.00;22.50;;;;;;;;;;5092470;28;20256;-82
2022/01/20 11:27:36;;;;;;;23.57;22.17;;;;;;;;;;5092273;28;20204;-80
2022/01/20 11:30:13;;;;;;;23.50;22.20;;;;;;;;;;5093317;28;20201;-81
2022/01/20 11:32:39;;;;;;;24.73;23.33;;;;;;;;;;5095137;28;20185;-81
2022/01/20 11:35:08;;;;;;;23.43;22.03;;;;;;;;;;5094815;28;20284;-81
2022/01/20 11:37:37;;;;;;;23.80;22.40;;;;;;;;;;5093571;28;20691;-80
2022/01/20 11:40:09;;;;;;;22.97;21.67;;;;;;;;;;5093911;28;20303;-83
2022/01/20 11:42:36;;;;;;;24.00;22.60;;;;;;;;;;5093107;28;20190;-82
2022/01/20 11:45:22;;;;;;;23.23;21.93;;;;;;;;;;5093564;28;20226;-83
2022/01/20 11:47:49;;;;;;;25.00;23.10;;;;;;;;;;5092263;28;20278;-82
2022/01/20 11:50:16;;;;;;;24.53;22.83;;;;;;;;;;5092785;28;20240;-85
2022/01/20 11:52:44;;;;;;;25.27;23.67;;;;;;;;;;5093043;28;20292;-80
2022/01/20 11:55:11;;;;;;;23.00;21.60;;;;;;;;;;5092597;28;20194;-81
2022/01/20 11:57:38;;;;;;;22.73;21.43;;;;;;;;;;5091877;28;20312;-83
2022/01/20 12:00:18;;;;;;;22.60;21.30;;;;;;;;;;5092040;28;20229;-84
2022/01/20 12:02:45;;;;;;;23.60;22.20;;;;;;;;;;5095324;28;20721;-83
2022/01/20 12:05:18;;;;;;;24.00;22.40;;;;;;;;;;5096117;28;20229;-82
2022/01/20 12:07:46;;;;;;;23.60;22.30;;;;;;;;;;5095550;28;20186;-85
2022/01/20 12:10:14;;;;;;;24.20;22.80;;;;;;;;;;5095874;28;20255;-84
2022/01/20 12:12:41;;;;;;;23.60;22.20;;;;;;;;;;5095990;28;20198;-82
2022/01/20 12:15:09;;;;;;;23.73;22.33;;;;;;;;;;5097080;28;20194;-83
2022/01/20 12:17:36;;;;;;;23.57;21.97;;;;;;;;;;5095955;28;20225;-84
2022/01/20 12:20:04;;;;;;;22.87;21.57;;;;;;;;;;5095136;28;20656;-84
2022/01/20 12:22:30;;;;;;;23.30;22.00;;;;;;;;;;5095135;28;20645;-83
2022/01/20 12:24:59;;;;;;;24.37;22.87;;;;;;;;;;5095494;28;20260;-82
2022/01/20 12:27:26;;;;;;;22.80;21.50;;;;;;;;;;5095634;28;20225;-83
2022/01/20 12:29:53;;;;;;;23.67;22.17;;;;;;;;;;5095737;28;20236;-84
2022/01/20 12:32:20;;;;;;;22.57;21.27;;;;;;;;;;5095575;28;20190;-84
2022/01/20 12:34:57;;;;;;;24.73;22.97;;;;;;;;;;5095560;28;20254;-85
2022/01/20 12:37:32;;;;;;;23.00;21.70;;;;;;;;;;5095273;28;20630;-84
2022/01/20 12:40:00;;;;;;;23.10;21.70;;;;;;;;;;5095447;28;20221;-80
2022/01/20 12:42:33;;;;;;;23.23;21.93;;;;;;;;;;5095580;28;20253;-79
2022/01/20 12:45:03;;;;;;;23.13;21.83;;;;;;;;;;5095652;28;20221;-81
2022/01/20 12:47:31;;;;;;;24.70;23.00;;;;;;;;;;5096235;28;20225;-80
2022/01/20 12:49:58;;;;;;;24.07;22.00;;;;;;;;;;5095370;28;20222;-79
2022/01/20 12:52:25;;;;;;;24.00;22.60;;;;;;;;;;5096937;28;20232;-79
2022/01/20 12:54:52;;;;;;;24.60;23.10;;;;;;;;;;5096128;28;20284;-79
2022/01/20 12:57:21;;;;;;;25.40;23.90;;;;;;;;;;5095030;28;20287;-81
2022/01/20 12:59:48;;;;;;;23.30;21.90;;;;;;;;;;5094815;28;20186;-81
2022/01/20 13:02:19;;;;;;;23.90;22.50;;;;;;;;;;5095173;28;20235;-82
2022/01/20 13:04:47;;;;;;;23.87;22.57;;;;;;;;;;5094903;28;20656;-83
2022/01/20 13:07:16;;;;;;;24.30;22.90;;;;;;;;;;5095957;28;20221;-83
2022/01/20 13:09:47;;;;;;;24.20;22.80;;;;;;;;;;5094696;28;20190;-83
2022/01/20 13:12:14;;;;;;;24.27;22.87;;;;;;;;;;5094758;28;20281;-82
2022/01/20 13:14:44;;;;;;;24.37;22.97;;;;;;;;;;5095514;28;20226;-81
2022/01/20 13:17:11;;;;;;;24.50;23.10;;;;;;;;;;5095222;28;20194;-83
2022/01/20 13:19:39;;;;;;;24.73;23.13;;;;;;;;;;5095608;28;20200;-83
2022/01/20 13:22:07;;;;;;;24.37;22.97;;;;;;;;;;5094652;28;20193;-82
2022/01/20 13:24:36;;;;;;;23.13;21.83;;;;;;;;;;5094965;28;20630;-83
2022/01/20 13:27:03;;;;;;;23.57;21.77;;;;;;;;;;5094341;28;20264;-84
2022/01/20 13:29:39;;;;;;;23.97;22.57;;;;;;;;;;5094256;28;20248;-83
2022/01/20 13:32:08;;;;;;;23.03;21.73;;;;;;;;;;5094112;28;20273;-84
2022/01/20 13:34:35;;;;;;;23.47;22.07;;;;;;;;;;5093717;28;20652;-83
2022/01/20 13:37:02;;;;;;;22.00;20.80;;;;;;;;;;5093848;28;20193;-82
2022/01/20 13:39:30;;;;;;;23.57;22.17;;;;;;;;;;5093615;28;20229;-83
2022/01/20 13:42:04;;;;;;;23.63;22.23;;;;;;;;;;5093913;28;20198;-82
2022/01/20 13:47:16;;;;;;;23.80;22.47;;;;;;;;;;5094334;28;20193;-83
2022/01/20 13:49:50;;;;;;;22.67;21.27;;;;;;;;;;5093811;28;20289;-82
2022/01/20 13:52:19;;;;;;;22.93;21.63;;;;;;;;;;5093804;28;20198;-82
2022/01/20 13:54:47;;;;;;;22.53;21.17;;;;;;;;;;5094111;28;20289;-81
2022/01/20 13:57:13;;;;;;;23.10;21.60;;;;;;;;;;5093412;28;20237;-80
2022/01/20 13:59:50;;;;;;;23.47;22.17;;;;;;;;;;5093390;28;20751;-83
2022/01/20 14:02:18;;;;;;;22.07;20.67;;;;;;;;;;5093276;28;20237;-83
2022/01/20 14:04:45;;;;;;;23.60;22.20;;;;;;;;;;5093209;28;20280;-81
2022/01/20 14:07:12;;;;;;;23.43;22.13;;;;;;;;;;5092919;28;20718;-84
2022/01/20 14:09:39;;;;;;;24.23;22.90;;;;;;;;;;5093503;28;20198;-84
2022/01/20 14:12:06;;;;;;;24.50;23.10;;;;;;;;;;5093312;28;20220;-84
2022/01/20 14:14:33;;;;;;;23.63;22.20;;;;;;;;;;5093139;28;20262;-82
2022/01/20 14:17:06;;;;;;;22.83;21.53;;;;;;;;;;5093133;28;20197;-83
2022/01/20 14:19:41;;;;;;;23.47;22.07;;;;;;;;;;5092877;28;20190;-82
2022/01/20 14:22:08;;;;;;;23.03;21.73;;;;;;;;;;5092804;28;20182;-81
2022/01/20 14:24:34;;;;;;;23.10;21.80;;;;;;;;;;5092137;28;20204;-82
2022/01/20 14:27:09;;;;;;;22.67;21.37;;;;;;;;;;5092606;28;20264;-82
2022/01/20 14:29:36;;;;;;;22.90;21.60;;;;;;;;;;5092984;28;20189;-83
2022/01/20 14:32:03;;;;;;;22.50;21.30;;;;;;;;;;5092664;28;20280;-83
2022/01/20 14:34:30;;;;;;;22.37;21.17;;;;;;;;;;5092492;28;20228;-84
2022/01/20 14:36:58;;;;;;;20.80;19.60;;;;;;;;;;5092470;28;20664;-82
2022/01/20 14:39:25;;;;;;;22.10;20.90;;;;;;;;;;5092749;28;20233;-83
2022/01/20 14:41:51;;;;;;;21.63;20.43;;;;;;;;;;5092721;28;20225;-82
2022/01/20 14:44:18;;;;;;;22.37;21.07;;;;;;;;;;5092570;28;20553;-83
2022/01/20 14:46:45;;;;;;;22.23;20.93;;;;;;;;;;5092780;28;20706;-84
2022/01/20 14:49:11;;;;;;;21.50;20.30;;;;;;;;;;5092912;28;20267;-83
2022/01/20 14:51:38;;;;;;;21.80;20.60;;;;;;;;;;5092762;28;20280;-83
2022/01/20 14:54:06;;;;;;;22.07;20.87;;;;;;;;;;5092678;28;20614;-82
2022/01/20 14:56:33;;;;;;;22.23;20.93;;;;;;;;;;5092540;28;20189;-82
2022/01/20 14:59:00;;;;;;;21.57;20.37;;;;;;;;;;5092070;28;20367;-82
2022/01/20 15:01:27;;;;;;;22.67;21.37;;;;;;;;;;5092193;28;20193;-81
2022/01/20 15:03:53;;;;;;;22.10;20.90;;;;;;;;;;5092174;28;20656;-82
2022/01/20 15:06:20;;;;;;;23.17;21.87;;;;;;;;;;5092318;28;20588;-81
2022/01/20 15:08:47;;;;;;;22.87;21.47;;;;;;;;;;5092339;28;20275;-82
2022/01/20 15:11:15;;;;;;;21.90;20.70;;;;;;;;;;5092035;28;20656;-82
2022/01/20 15:13:41;;;;;;;22.60;21.30;;;;;;;;;;5092284;28;20276;-81